Time;durP1;ratioP1;P1;durP2;ratioP2;P2;SDS_P1;SDS_P2;PMS_P1;PMS_P2;Temp;Humidity;BMP_temperature;BMP_pressure;BME280_temperature;BME280_humidity;BME280_pressure;Samples;Min_cycle;Max_cycle;Signal;HPM_P1;HPM_P2
2021/09/17 00:01:02;;;;;;;20.90;16.48;;;15.30;90.60;;;;;;5020186;28;20021;-76
2021/09/17 00:03:28;;;;;;;18.92;15.95;;;15.30;90.60;;;;;;5036597;28;20155;-76
2021/09/17 00:05:54;;;;;;;17.60;15.70;;;15.40;90.60;;;;;;5032971;28;20041;-75
2021/09/17 00:08:19;;;;;;;18.45;16.27;;;15.40;90.60;;;;;;5033279;28;20459;-75
2021/09/17 00:10:46;;;;;;;16.58;14.80;;;15.40;90.60;;;;;;5033315;28;20025;-76
2021/09/17 00:13:11;;;;;;;17.05;15.32;;;15.40;90.60;;;;;;5032976;28;20065;-76
2021/09/17 00:15:37;;;;;;;19.10;15.13;;;15.40;90.60;;;;;;5016516;28;20103;-76
2021/09/17 00:18:03;;;;;;;20.75;15.50;;;15.40;90.60;;;;;;5013109;28;20040;-75
2021/09/17 00:20:29;;;;;;;21.85;16.88;;;15.40;90.60;;;;;;4996776;28;20030;-75
2021/09/17 00:22:54;;;;;;;22.60;15.15;;;15.50;90.60;;;;;;5013412;28;20022;-75
2021/09/17 00:25:20;;;;;;;20.67;18.42;;;15.50;90.60;;;;;;5024123;28;20119;-75
2021/09/17 00:27:46;;;;;;;22.95;17.95;;;15.50;90.50;;;;;;5016245;28;20037;-76
2021/09/17 00:30:12;;;;;;;24.75;17.63;;;15.50;90.60;;;;;;5016141;28;20037;-76
2021/09/17 00:32:38;;;;;;;22.33;16.77;;;15.40;90.60;;;;;;5015799;28;20041;-75
2021/09/17 00:35:04;;;;;;;18.92;16.75;;;15.50;90.70;;;;;;5032437;28;20437;-75
2021/09/17 00:37:30;;;;;;;21.15;16.67;;;15.40;90.70;;;;;;5032375;28;20029;-75
2021/09/17 00:39:55;;;;;;;20.70;17.00;;;15.50;90.70;;;;;;5032481;28;20025;-76
2021/09/17 00:42:21;;;;;;;21.52;17.73;;;15.40;90.70;;;;;;5032255;28;20033;-75
2021/09/17 00:44:47;;;;;;;23.38;18.27;;;15.50;90.70;;;;;;5012479;28;20029;-75
2021/09/17 00:47:13;;;;;;;25.17;18.20;;;15.50;90.80;;;;;;4995781;28;20037;-75
2021/09/17 00:49:39;;;;;;;23.70;17.83;;;15.50;90.80;;;;;;5011623;28;20076;-75
2021/09/17 00:52:05;;;;;;;19.70;17.60;;;15.50;90.80;;;;;;5011551;28;20034;-75
2021/09/17 00:54:34;;;;;;;18.58;16.30;;;15.50;90.90;;;;;;4997950;28;20030;-76
2021/09/17 00:57:00;;;;;;;;;;;15.50;90.90;;;;;;5032081;28;20117;-75
2021/09/17 00:59:26;;;;;;;21.92;17.98;;;15.50;90.80;;;;;;5033130;28;19909;-75
2021/09/17 01:01:51;;;;;;;22.45;16.83;;;15.50;90.90;;;;;;5015514;28;20045;-75
2021/09/17 01:04:17;;;;;;;22.05;17.98;;;15.40;90.90;;;;;;5014971;28;20053;-75
2021/09/17 01:06:43;;;;;;;23.67;18.33;;;15.50;91.00;;;;;;5015739;28;20078;-75
2021/09/17 01:09:10;;;;;;;25.70;19.42;;;15.50;90.90;;;;;;5015348;28;20112;-76
2021/09/17 01:11:36;;;;;;;24.63;18.55;;;15.50;90.90;;;;;;5031874;28;20167;-75
2021/09/17 01:14:03;;;;;;;21.60;18.50;;;15.50;91.00;;;;;;5032882;28;20124;-76
2021/09/17 01:16:29;;;;;;;26.17;19.15;;;15.40;91.00;;;;;;5027245;28;20492;-75
2021/09/17 01:18:55;;;;;;;23.25;18.63;;;15.50;91.00;;;;;;5026797;28;20026;-76
2021/09/17 01:21:21;;;;;;;21.25;16.55;;;15.50;91.00;;;;;;5011596;28;20026;-75
2021/09/17 01:23:48;;;;;;;21.17;17.23;;;15.40;91.00;;;;;;5013051;28;20469;-75
2021/09/17 01:26:14;;;;;;;21.77;17.80;;;15.40;91.00;;;;;;5042772;28;20490;-76
2021/09/17 01:28:40;;;;;;;24.05;19.38;;;15.40;91.00;;;;;;5047138;28;20398;-76
2021/09/17 01:31:06;;;;;;;24.08;19.80;;;15.40;91.00;;;;;;5030522;28;20033;-75
2021/09/17 01:33:32;;;;;;;26.38;19.30;;;15.40;91.00;;;;;;5031800;28;20053;-76
2021/09/17 01:36:00;;;;;;;24.30;19.52;;;15.40;91.00;;;;;;5014024;28;20083;-76
2021/09/17 01:38:28;;;;;;;24.52;18.65;;;15.40;91.10;;;;;;5032028;28;20045;-75
2021/09/17 01:40:55;;;;;;;28.48;19.35;;;15.40;91.10;;;;;;5030835;28;20091;-76
2021/09/17 01:43:21;;;;;;;27.27;18.60;;;15.40;91.10;;;;;;5014352;28;20040;-75
2021/09/17 01:45:48;;;;;;;24.75;19.23;;;15.40;91.10;;;;;;5029473;28;20063;-75
2021/09/17 01:48:14;;;;;;;28.48;19.63;;;15.40;91.20;;;;;;5014783;28;20033;-76
2021/09/17 01:50:40;;;;;;;26.77;19.27;;;15.40;91.20;;;;;;5014923;28;20430;-75
2021/09/17 01:53:05;;;;;;;22.70;18.60;;;15.40;91.20;;;;;;5031246;28;20495;-75
2021/09/17 01:55:31;;;;;;;26.15;19.75;;;15.40;91.20;;;;;;5032371;28;20033;-75
2021/09/17 01:57:58;;;;;;;27.60;20.35;;;15.40;91.20;;;;;;5031139;28;20029;-76
2021/09/17 02:00:24;;;;;;;24.42;18.33;;;15.40;91.20;;;;;;5014785;28;20080;-75
2021/09/17 02:02:50;;;;;;;27.05;18.50;;;15.40;91.30;;;;;;5031015;28;20442;-75
2021/09/17 02:05:17;;;;;;;24.27;19.42;;;15.40;91.30;;;;;;5031130;28;20383;-75
2021/09/17 02:07:43;;;;;;;24.88;18.95;;;15.40;91.30;;;;;;5032504;28;20021;-75
2021/09/17 02:10:10;;;;;;;24.42;17.90;;;15.40;91.30;;;;;;5013996;28;20034;-75
2021/09/17 02:12:36;;;;;;;26.90;20.13;;;15.40;91.40;;;;;;5026448;28;20077;-75
2021/09/17 02:15:04;;;;;;;26.27;20.20;;;15.40;91.40;;;;;;5029682;28;20040;-76
2021/09/17 02:17:31;;;;;;;29.35;19.50;;;15.40;91.40;;;;;;5031119;28;20030;-75
2021/09/17 02:19:57;;;;;;;30.92;20.50;;;15.40;91.40;;;;;;5014764;28;20038;-75
2021/09/17 02:22:24;;;;;;;25.05;20.25;;;15.40;91.40;;;;;;5031960;28;20025;-75
2021/09/17 02:24:50;;;;;;;27.13;19.58;;;15.40;91.40;;;;;;5031674;28;20437;-75
2021/09/17 02:27:16;;;;;;;32.42;20.70;;;15.40;91.50;;;;;;5031085;28;20084;-76
2021/09/17 02:29:41;;;;;;;29.27;19.75;;;15.40;91.40;;;;;;4998180;28;20056;-75
2021/09/17 02:32:09;;;;;;;27.52;20.75;;;15.40;91.40;;;;;;5014399;28;20084;-75
2021/09/17 02:34:35;;;;;;;29.75;20.85;;;15.40;91.40;;;;;;5027536;28;20060;-75
2021/09/17 02:37:01;;;;;;;24.35;20.05;;;15.40;91.50;;;;;;5006763;28;20042;-75
2021/09/17 02:39:27;;;;;;;30.85;23.08;;;15.40;91.50;;;;;;5031243;28;20028;-75
2021/09/17 02:41:53;;;;;;;27.50;22.35;;;15.40;91.50;;;;;;5031050;28;20466;-75
2021/09/17 02:44:18;;;;;;;28.75;21.30;;;15.40;91.50;;;;;;5030595;28;20037;-75
2021/09/17 02:46:44;;;;;;;33.53;22.83;;;15.40;91.50;;;;;;5030837;28;20132;-75
2021/09/17 02:49:10;;;;;;;34.53;25.42;;;15.50;91.60;;;;;;5030781;28;20517;-75
2021/09/17 02:51:36;;;;;;;28.67;21.73;;;15.40;91.50;;;;;;5032127;28;20057;-75
2021/09/17 02:54:02;;;;;;;27.90;20.50;;;15.40;91.60;;;;;;5031857;28;20037;-75
2021/09/17 02:56:28;;;;;;;30.45;19.88;;;15.40;91.60;;;;;;5030452;28;20026;-75
2021/09/17 02:58:54;;;;;;;27.77;21.33;;;15.40;91.60;;;;;;5032862;28;20057;-75
2021/09/17 03:01:20;;;;;;;29.98;20.67;;;15.40;91.60;;;;;;5032750;28;20764;-75
2021/09/17 03:03:45;;;;;;;31.45;22.75;;;15.50;91.70;;;;;;5035276;28;20094;-75
2021/09/17 03:06:11;;;;;;;34.20;23.50;;;15.40;91.70;;;;;;5055047;28;20096;-76
2021/09/17 03:08:38;;;;;;;36.08;23.02;;;15.40;91.70;;;;;;5055430;28;20076;-75
2021/09/17 03:11:04;;;;;;;32.08;22.58;;;15.40;91.70;;;;;;5037507;28;20056;-75
2021/09/17 03:13:30;;;;;;;32.67;22.10;;;15.50;91.70;;;;;;5017402;28;20038;-76
2021/09/17 03:15:56;;;;;;;30.83;21.95;;;15.50;91.70;;;;;;5017640;28;20064;-75
2021/09/17 03:18:21;;;;;;;32.97;21.45;;;15.50;91.70;;;;;;5017655;28;20506;-75
2021/09/17 03:20:50;;;;;;;32.97;23.63;;;15.50;91.70;;;;;;5034772;28;20514;-75
2021/09/17 03:23:16;;;;;;;32.20;23.40;;;15.50;91.80;;;;;;5054897;28;20048;-75
2021/09/17 03:25:42;;;;;;;28.38;23.10;;;15.50;91.70;;;;;;5054122;28;20029;-75
2021/09/17 03:28:08;;;;;;;30.42;21.65;;;15.50;91.80;;;;;;5054928;28;20388;-75
2021/09/17 03:30:34;;;;;;;26.63;18.67;;;15.50;91.80;;;;;;5037444;28;20029;-75
2021/09/17 03:33:00;;;;;;;30.27;22.55;;;15.50;91.80;;;;;;5037023;28;20029;-75
2021/09/17 03:35:25;;;;;;;30.67;22.70;;;15.50;91.80;;;;;;5036860;28;20033;-76
2021/09/17 03:37:51;;;;;;;30.02;20.65;;;15.50;91.80;;;;;;5020451;28;20059;-75
2021/09/17 03:40:18;;;;;;;28.48;20.98;;;15.50;91.80;;;;;;5036879;28;20056;-75
2021/09/17 03:42:44;;;;;;;33.35;22.55;;;15.50;91.80;;;;;;5054703;28;20434;-75
2021/09/17 03:45:10;;;;;;;33.63;23.75;;;15.50;91.70;;;;;;5035732;28;20159;-75
2021/09/17 03:47:36;;;;;;;41.58;22.27;;;15.50;91.70;;;;;;5037171;28;20655;-75
2021/09/17 03:50:04;;;;;;;31.13;22.38;;;15.50;91.80;;;;;;5036702;28;20789;-75
2021/09/17 03:52:29;;;;;;;26.17;19.98;;;15.50;91.80;;;;;;5036902;28;20033;-75
2021/09/17 03:54:55;;;;;;;27.40;21.83;;;15.50;91.80;;;;;;5036463;28;20488;-75
2021/09/17 03:57:21;;;;;;;36.00;22.95;;;15.50;91.80;;;;;;5016054;28;20038;-75
2021/09/17 03:59:47;;;;;;;32.92;21.67;;;15.50;91.90;;;;;;5018306;28;20368;-75
2021/09/17 04:02:13;;;;;;;30.55;23.65;;;15.50;91.90;;;;;;5016483;28;20028;-75
2021/09/17 04:04:40;;;;;;;32.90;23.58;;;15.50;91.90;;;;;;5032939;28;20084;-75
2021/09/17 04:07:07;;;;;;;33.05;21.70;;;15.50;91.80;;;;;;5016889;28;20043;-75
2021/09/17 04:09:33;;;;;;;32.72;21.98;;;15.50;91.80;;;;;;5016198;28;20125;-75
2021/09/17 04:11:59;;;;;;;31.73;21.20;;;15.50;91.80;;;;;;5016316;28;20053;-76
2021/09/17 04:14:26;;;;;;;35.42;24.85;;;15.50;91.90;;;;;;5000224;28;20069;-75
2021/09/17 04:16:52;;;;;;;34.83;24.77;;;15.50;91.90;;;;;;5046513;28;20040;-75
2021/09/17 04:19:17;;;;;;;31.63;24.20;;;15.50;91.80;;;;;;5036127;28;20561;-75
2021/09/17 04:21:43;;;;;;;34.22;24.73;;;15.50;91.80;;;;;;5036017;28;20124;-75
2021/09/17 04:24:09;;;;;;;31.02;22.75;;;15.50;91.90;;;;;;5052823;28;20028;-76
2021/09/17 04:26:35;;;;;;;29.45;22.23;;;15.50;91.90;;;;;;5035717;28;20033;-75
2021/09/17 04:29:01;;;;;;;35.92;23.85;;;15.40;91.90;;;;;;5051780;28;20086;-75
2021/09/17 04:31:26;;;;;;;30.42;23.20;;;15.50;91.90;;;;;;5032306;28;20024;-76
2021/09/17 04:33:52;;;;;;;31.52;22.70;;;15.40;91.90;;;;;;5052922;28;20032;-76
2021/09/17 04:36:18;;;;;;;29.35;22.10;;;15.40;91.90;;;;;;5032644;28;20830;-79
2021/09/17 04:38:44;;;;;;;34.67;23.77;;;15.40;91.90;;;;;;5049015;28;20025;-79
2021/09/17 04:41:09;;;;;;;36.65;25.00;;;15.40;92.00;;;;;;5033262;28;20117;-79
2021/09/17 04:43:35;;;;;;;35.13;24.05;;;15.40;92.00;;;;;;5033385;28;20441;-79
2021/09/17 04:46:02;;;;;;;29.75;20.70;;;15.50;92.00;;;;;;5033545;28;20025;-79
2021/09/17 04:48:28;;;;;;;30.48;21.23;;;15.50;92.10;;;;;;5032998;28;20033;-79
2021/09/17 04:50:54;;;;;;;29.17;22.48;;;15.40;92.10;;;;;;5032535;28;20029;-83
2021/09/17 04:53:19;;;;;;;32.53;22.02;;;15.40;92.40;;;;;;5028584;28;20489;-83
2021/09/17 04:55:47;;;;;;;31.92;22.73;;;15.50;92.10;;;;;;5016287;28;20482;-83
2021/09/17 04:58:13;;;;;;;29.23;22.40;;;15.50;92.20;;;;;;5051620;28;20029;-82
2021/09/17 05:00:39;;;;;;;46.97;23.00;;;15.50;92.20;;;;;;5036031;28;20041;-83
2021/09/17 05:03:05;;;;;;;29.63;21.95;;;15.50;92.20;;;;;;5053794;28;20102;-82
2021/09/17 05:05:32;;;;;;;31.05;22.15;;;15.50;92.20;;;;;;5053794;28;20064;-82
2021/09/17 05:07:58;;;;;;;31.63;22.80;;;15.50;92.20;;;;;;5036001;28;20062;-82
2021/09/17 05:10:24;;;;;;;27.80;19.80;;;15.50;92.20;;;;;;5036064;28;20057;-82
2021/09/17 05:12:50;;;;;;;32.13;22.42;;;15.50;92.30;;;;;;5035776;28;20027;-82
2021/09/17 05:15:16;;;;;;;26.23;20.15;;;15.50;92.30;;;;;;5053823;28;20667;-82
2021/09/17 05:17:42;;;;;;;29.33;22.25;;;15.60;92.30;;;;;;5053227;28;20107;-82
2021/09/17 05:20:08;;;;;;;27.55;20.05;;;15.60;92.30;;;;;;5051747;28;20075;-82
2021/09/17 05:22:34;;;;;;;30.48;20.33;;;15.60;92.30;;;;;;5035388;28;20795;-82
2021/09/17 05:25:00;;;;;;;29.58;22.42;;;15.60;92.30;;;;;;5034800;28;20052;-82
2021/09/17 05:27:26;;;;;;;25.15;20.17;;;15.60;92.30;;;;;;5019003;28;20481;-82
2021/09/17 05:29:53;;;;;;;29.08;20.80;;;15.60;92.30;;;;;;5035914;28;20033;-82
2021/09/17 05:32:20;;;;;;;27.08;20.55;;;15.60;92.30;;;;;;5035662;28;20025;-82
2021/09/17 05:34:47;;;;;;;30.83;20.05;;;15.60;92.40;;;;;;5035469;28;20370;-82
2021/09/17 05:37:13;;;;;;;38.47;25.70;;;15.60;92.30;;;;;;5050318;28;20025;-82
2021/09/17 05:39:39;;;;;;;31.02;23.00;;;15.60;92.40;;;;;;5033535;28;20409;-82
2021/09/17 05:42:08;;;;;;;28.98;22.58;;;15.60;92.40;;;;;;5024353;28;20079;-81
2021/09/17 05:44:34;;;;;;;29.75;21.15;;;15.70;92.40;;;;;;5035149;28;20035;-78
2021/09/17 05:46:59;;;;;;;29.90;21.90;;;15.60;92.40;;;;;;5035232;28;20376;-78
2021/09/17 05:49:25;;;;;;;29.88;22.88;;;15.70;92.40;;;;;;5031968;28;20048;-78
2021/09/17 05:51:51;;;;;;;33.28;22.85;;;15.60;92.40;;;;;;5031899;28;20478;-78
2021/09/17 05:54:17;;;;;;;32.08;23.45;;;15.70;92.40;;;;;;5031985;28;20109;-78
2021/09/17 05:56:43;;;;;;;26.80;20.63;;;15.70;92.40;;;;;;5032311;28;20373;-79
2021/09/17 05:59:08;;;;;;;26.27;19.38;;;15.70;92.50;;;;;;5030570;28;20030;-78
2021/09/17 06:01:34;;;;;;;34.80;23.08;;;15.70;92.50;;;;;;5033872;28;20027;-78
2021/09/17 06:04:00;;;;;;;33.03;23.08;;;15.70;92.50;;;;;;5033792;28;20053;-78
2021/09/17 06:06:26;;;;;;;28.77;22.45;;;15.70;92.50;;;;;;5015543;28;20041;-78
2021/09/17 06:08:52;;;;;;;28.88;21.30;;;15.80;92.50;;;;;;5032996;28;20393;-78
2021/09/17 06:11:18;;;;;;;25.27;18.95;;;15.80;92.50;;;;;;5050714;28;20132;-78
2021/09/17 06:13:44;;;;;;;29.58;21.88;;;15.80;92.50;;;;;;5015403;28;20030;-78
2021/09/17 06:16:10;;;;;;;25.23;18.58;;;15.80;92.50;;;;;;5032865;28;20359;-78
2021/09/17 06:18:36;;;;;;;25.83;18.80;;;15.80;92.50;;;;;;5051564;28;20025;-78
2021/09/17 06:21:02;;;;;;;24.85;19.88;;;15.80;92.50;;;;;;5034417;28;20469;-78
2021/09/17 06:23:28;;;;;;;24.67;18.27;;;15.80;92.50;;;;;;5052780;28;20037;-78
2021/09/17 06:25:56;;;;;;;26.95;19.92;;;15.90;92.50;;;;;;5052421;28;20052;-78
2021/09/17 06:28:23;;;;;;;30.10;19.73;;;15.90;92.50;;;;;;5052701;28;20025;-78
2021/09/17 06:30:49;;;;;;;33.60;21.90;;;15.90;92.50;;;;;;5034596;28;20037;-78
2021/09/17 06:33:15;;;;;;;24.83;17.52;;;15.90;92.50;;;;;;5038459;28;20484;-78
2021/09/17 06:35:41;;;;;;;25.40;19.80;;;15.90;92.60;;;;;;5052128;28;20033;-78
2021/09/17 06:38:06;;;;;;;20.77;17.20;;;15.90;92.50;;;;;;5036753;28;20474;-78
2021/09/17 06:40:33;;;;;;;26.83;19.42;;;16.00;92.60;;;;;;5056227;28;20108;-78
2021/09/17 06:42:59;;;;;;;26.55;19.10;;;16.00;92.50;;;;;;5056616;28;20052;-78
2021/09/17 06:45:25;;;;;;;30.50;21.30;;;16.00;92.50;;;;;;5038665;28;20493;-78
2021/09/17 06:47:54;;;;;;;24.55;19.83;;;16.00;92.50;;;;;;5055952;28;20033;-78
2021/09/17 06:50:22;;;;;;;26.77;19.75;;;16.00;92.50;;;;;;5034807;28;20470;-78
2021/09/17 06:52:50;;;;;;;24.60;17.27;;;16.00;92.50;;;;;;5036475;28;20025;-78
2021/09/17 06:55:18;;;;;;;22.85;17.05;;;16.00;92.50;;;;;;5037402;28;20443;-77
2021/09/17 06:57:46;;;;;;;26.45;19.70;;;16.00;92.50;;;;;;5037728;28;20056;-77
2021/09/17 07:00:17;;;;;;;24.37;18.33;;;16.10;92.50;;;;;;5055203;28;20120;-77
2021/09/17 07:02:43;;;;;;;25.77;19.27;;;16.10;92.50;;;;;;5050181;28;20268;-77
2021/09/17 07:05:10;;;;;;;27.70;20.55;;;16.20;92.50;;;;;;5052233;28;20461;-77
2021/09/17 07:07:36;;;;;;;26.15;18.67;;;16.20;92.50;;;;;;5037373;28;20048;-77
2021/09/17 07:10:04;;;;;;;28.90;20.85;;;16.10;92.50;;;;;;5053832;28;20033;-77
2021/09/17 07:12:30;;;;;;;26.80;20.38;;;16.20;92.60;;;;;;5054931;28;20143;-77
2021/09/17 07:14:56;;;;;;;26.40;19.23;;;16.20;92.50;;;;;;5037028;28;20041;-77
2021/09/17 07:17:22;;;;;;;27.20;19.63;;;16.30;92.60;;;;;;5048035;28;20045;-77
2021/09/17 07:19:48;;;;;;;26.70;19.08;;;16.30;92.60;;;;;;5054719;28;20029;-77
2021/09/17 07:22:14;;;;;;;25.33;17.77;;;16.30;92.50;;;;;;5039001;28;20037;-77
2021/09/17 07:24:40;;;;;;;35.50;23.95;;;16.40;92.50;;;;;;5036573;28;20032;-75
2021/09/17 07:27:05;;;;;;;36.33;23.63;;;16.40;92.50;;;;;;5036460;28;20167;-77
2021/09/17 07:29:31;;;;;;;29.90;20.40;;;16.50;92.60;;;;;;5036422;28;20029;-77
2021/09/17 07:31:57;;;;;;;28.75;20.90;;;16.50;92.50;;;;;;5054380;28;20037;-77
2021/09/17 07:34:23;;;;;;;29.27;22.00;;;16.50;92.50;;;;;;5037200;28;20091;-77
2021/09/17 07:36:49;;;;;;;34.97;21.65;;;16.60;92.50;;;;;;5036951;28;20086;-77
2021/09/17 07:39:14;;;;;;;32.13;22.83;;;16.60;92.50;;;;;;5055386;28;20393;-77
2021/09/17 07:41:40;;;;;;;32.42;22.80;;;16.70;92.40;;;;;;5052764;28;20040;-76
2021/09/17 07:44:06;;;;;;;34.65;23.30;;;16.80;92.20;;;;;;5052843;28;20477;-77
2021/09/17 07:46:32;;;;;;;30.13;20.67;;;16.80;92.10;;;;;;5053604;28;20039;-77
2021/09/17 07:48:58;;;;;;;31.83;21.15;;;16.90;92.20;;;;;;5065895;28;20024;-77
2021/09/17 07:51:24;;;;;;;29.65;19.73;;;17.00;92.10;;;;;;5035115;28;20457;-77
2021/09/17 07:53:49;;;;;;;32.40;23.63;;;17.00;92.00;;;;;;5018319;28;20079;-77
2021/09/17 07:56:15;;;;;;;30.52;22.80;;;17.10;91.90;;;;;;5035205;28;20021;-77
2021/09/17 07:58:41;;;;;;;39.80;24.00;;;17.20;91.80;;;;;;5035702;28;20033;-77
2021/09/17 08:01:07;;;;;;;32.10;19.70;;;17.30;91.90;;;;;;5052984;28;20032;-77
2021/09/17 08:03:32;;;;;;;30.13;22.13;;;17.30;91.50;;;;;;5034584;28;20086;-77
2021/09/17 08:05:59;;;;;;;42.47;23.90;;;17.40;91.40;;;;;;5051638;28;20439;-78
2021/09/17 08:08:26;;;;;;;33.53;22.92;;;17.50;91.10;;;;;;5035186;28;20025;-78
2021/09/17 08:10:51;;;;;;;38.25;23.10;;;17.50;91.10;;;;;;5043810;28;20099;-76
2021/09/17 08:13:17;;;;;;;38.30;24.02;;;17.60;91.00;;;;;;5030875;28;20148;-78
2021/09/17 08:15:43;;;;;;;37.20;23.00;;;17.60;90.90;;;;;;5036616;28;20033;-78
2021/09/17 08:18:09;;;;;;;38.47;23.23;;;17.70;90.90;;;;;;5052242;28;20036;-78
2021/09/17 08:20:37;;;;;;;35.97;22.52;;;17.80;90.90;;;;;;5034696;28;20033;-79
2021/09/17 08:23:03;;;;;;;36.78;24.08;;;17.90;90.80;;;;;;5034932;28;20033;-79
2021/09/17 08:25:29;;;;;;;50.38;26.65;;;17.90;90.60;;;;;;5051569;28;20131;-79
2021/09/17 08:27:55;;;;;;;37.15;22.95;;;18.00;90.60;;;;;;5052746;28;20103;-79
2021/09/17 08:30:21;;;;;;;38.70;22.90;;;18.00;90.50;;;;;;5051722;28;20052;-79
2021/09/17 08:32:47;;;;;;;39.60;23.10;;;18.10;90.30;;;;;;5035594;28;20025;-79
2021/09/17 08:35:13;;;;;;;38.95;25.88;;;18.20;90.20;;;;;;5053314;28;20056;-79
2021/09/17 08:37:40;;;;;;;39.00;24.67;;;18.30;90.10;;;;;;5035416;28;20025;-79
2021/09/17 08:40:07;;;;;;;43.95;25.38;;;18.40;89.60;;;;;;5051911;28;20541;-79
2021/09/17 08:42:33;;;;;;;42.03;24.20;;;18.50;89.20;;;;;;5035611;28;20478;-79
2021/09/17 08:44:59;;;;;;;40.35;26.23;;;18.50;89.00;;;;;;5036119;28;20588;-78
2021/09/17 08:47:25;;;;;;;40.58;26.02;;;18.60;89.10;;;;;;5051949;28;20025;-79
2021/09/17 08:49:51;;;;;;;44.08;28.63;;;18.60;89.00;;;;;;5052638;28;20075;-79
2021/09/17 08:52:17;;;;;;;43.88;27.92;;;18.70;88.60;;;;;;5035122;28;20033;-79
2021/09/17 08:54:43;;;;;;;45.50;29.75;;;18.80;88.30;;;;;;5053056;28;20435;-79
2021/09/17 08:57:10;;;;;;;49.22;30.75;;;18.90;87.50;;;;;;5052781;28;20039;-79
2021/09/17 08:59:36;;;;;;;47.30;30.67;;;19.00;87.40;;;;;;5052453;28;20534;-79
2021/09/17 09:02:24;;;;;;;44.53;29.40;;;19.00;87.20;;;;;;5014821;28;20020;-79
2021/09/17 09:04:57;;;;;;;43.20;29.52;;;19.20;86.40;;;;;;5031105;28;20049;-79
2021/09/17 09:07:28;;;;;;;45.80;29.13;;;19.30;86.20;;;;;;5053023;28;20108;-79
2021/09/17 09:09:54;;;;;;;45.05;27.98;;;19.30;85.60;;;;;;5052697;28;20043;-79
2021/09/17 09:12:19;;;;;;;47.25;31.33;;;19.40;85.20;;;;;;5052795;28;20436;-79
2021/09/17 09:14:45;;;;;;;55.60;31.77;;;19.40;85.00;;;;;;5019571;28;20504;-79
2021/09/17 09:17:11;;;;;;;44.28;28.50;;;19.40;85.20;;;;;;5035821;28;20086;-79
2021/09/17 09:19:40;;;;;;;39.22;27.15;;;19.50;85.20;;;;;;5035873;28;20049;-79
2021/09/17 09:22:06;;;;;;;;;;;19.50;85.10;;;;;;5036183;28;20017;-79
2021/09/17 09:24:40;;;;;;;37.05;24.60;;;19.60;84.80;;;;;;5035772;28;19905;-79
2021/09/17 09:27:12;;;;;;;44.75;31.02;;;19.70;84.80;;;;;;5053638;28;20049;-79
2021/09/17 09:29:40;;;;;;;42.78;29.60;;;19.70;84.40;;;;;;5053637;28;20040;-79
2021/09/17 09:32:06;;;;;;;41.72;29.88;;;19.70;84.30;;;;;;5052492;28;20052;-79
2021/09/17 09:34:52;;;;;;;41.17;27.42;;;19.70;84.10;;;;;;5053495;28;20029;-79
2021/09/17 09:37:20;;;;;;;40.28;28.63;;;19.80;84.40;;;;;;5053401;28;20420;-79
2021/09/17 09:39:53;;;;;;;44.85;28.90;;;19.90;84.00;;;;;;5053512;28;20481;-79
2021/09/17 09:42:20;;;;;;;48.75;30.23;;;20.00;83.60;;;;;;5035556;28;20452;-79
2021/09/17 09:45:10;;;;;;;39.60;27.20;;;20.00;82.70;;;;;;5052077;28;20029;-79
2021/09/17 09:47:37;;;;;;;42.25;26.13;;;20.10;82.30;;;;;;5053309;28;20024;-79
2021/09/17 09:50:09;;;;;;;46.88;30.40;;;20.10;82.70;;;;;;5035837;28;20533;-79
2021/09/17 09:52:35;;;;;;;40.35;28.33;;;20.20;82.50;;;;;;5035647;28;20021;-79
2021/09/17 09:55:02;;;;;;;41.22;27.45;;;20.20;82.50;;;;;;5035673;28;20025;-79
2021/09/17 09:57:28;;;;;;;42.70;29.48;;;20.30;82.80;;;;;;5053136;28;20021;-79
2021/09/17 10:00:04;;;;;;;39.33;28.05;;;20.40;82.30;;;;;;5053026;28;20037;-79
2021/09/17 10:02:31;;;;;;;44.50;29.77;;;20.50;81.70;;;;;;5053286;28;20021;-79
2021/09/17 10:05:00;;;;;;;49.30;31.33;;;20.60;81.30;;;;;;5052778;28;20516;-79
2021/09/17 10:07:27;;;;;;;;;;;20.70;81.10;;;;;;5051948;28;20037;-79
2021/09/17 10:09:54;;;;;;;41.47;29.33;;;20.70;81.20;;;;;;5053252;28;20015;-79
2021/09/17 10:12:20;;;;;;;46.75;29.73;;;20.80;80.40;;;;;;5053019;28;20490;-79
2021/09/17 10:14:48;;;;;;;44.13;29.50;;;20.80;81.20;;;;;;5035154;28;20390;-79
2021/09/17 10:17:20;;;;;;;39.63;29.17;;;20.90;80.60;;;;;;5035014;28;20389;-79
2021/09/17 10:19:48;;;;;;;43.72;29.08;;;20.90;80.60;;;;;;5052842;28;20021;-79
2021/09/17 10:22:43;;;;;;;41.27;28.30;;;20.90;80.80;;;;;;5053136;28;20032;-79
2021/09/17 10:25:10;;;;;;;43.33;30.13;;;21.00;80.70;;;;;;5053024;28;20259;-79
2021/09/17 10:27:40;;;;;;;40.08;29.23;;;21.20;80.40;;;;;;5035113;28;20028;-79
2021/09/17 10:30:09;;;;;;;42.03;29.20;;;21.50;79.70;;;;;;5052647;28;20032;-79
2021/09/17 10:32:39;;;;;;;36.38;25.15;;;21.60;79.20;;;;;;5052160;28;20021;-82
2021/09/17 10:35:13;;;;;;;38.28;26.35;;;21.60;78.10;;;;;;5051123;28;20025;-82
2021/09/17 10:38:01;;;;;;;38.45;26.15;;;21.60;77.60;;;;;;5034980;28;20563;-82
2021/09/17 10:40:36;;;;;;;37.37;24.10;;;21.60;77.70;;;;;;5030349;28;20398;-82
2021/09/17 10:43:11;;;;;;;33.60;24.10;;;21.70;77.60;;;;;;5050966;28;20260;-80
2021/09/17 10:45:40;;;;;;;33.00;22.85;;;21.80;76.20;;;;;;5050891;28;20032;-81
2021/09/17 10:48:09;;;;;;;35.50;23.63;;;21.90;76.20;;;;;;5033679;28;20025;-81
2021/09/17 10:50:48;;;;;;;26.15;20.65;;;22.00;75.80;;;;;;5033473;28;20025;-83
2021/09/17 10:53:35;;;;;;;28.52;21.65;;;22.20;75.40;;;;;;5052615;28;20104;-81
2021/09/17 10:56:03;;;;;;;31.85;23.60;;;22.30;74.90;;;;;;5031254;28;20116;-84
2021/09/17 10:58:33;;;;;;;30.70;23.10;;;22.40;74.60;;;;;;5014520;28;20124;-83
2021/09/17 11:01:01;;;;;;;31.23;22.80;;;22.60;74.50;;;;;;5014875;28;20091;-83
2021/09/17 11:03:39;;;;;;;33.13;24.50;;;22.70;74.10;;;;;;5014988;28;20021;-83
2021/09/17 11:06:26;;;;;;;31.30;24.58;;;22.80;73.20;;;;;;5014691;28;20280;-83
2021/09/17 11:09:02;;;;;;;32.25;24.55;;;22.90;73.10;;;;;;5014851;28;20048;-81
2021/09/17 11:11:40;;;;;;;30.50;21.75;;;23.00;72.20;;;;;;5029592;28;20072;-82
2021/09/17 11:14:08;;;;;;;30.33;21.95;;;23.00;72.20;;;;;;5052676;28;20017;-83
2021/09/17 11:16:35;;;;;;;27.65;20.85;;;23.00;72.30;;;;;;5034401;28;20370;-83
2021/09/17 11:19:07;;;;;;;30.67;20.98;;;23.00;72.20;;;;;;5035938;28;20025;-84
2021/09/17 11:21:34;;;;;;;29.58;19.55;;;23.10;71.80;;;;;;5037038;28;20543;-83
2021/09/17 11:24:00;;;;;;;26.65;19.13;;;23.20;71.60;;;;;;5037658;28;20033;-83
2021/09/17 11:26:27;;;;;;;24.08;17.38;;;23.30;71.00;;;;;;5037701;28;20094;-84
2021/09/17 11:29:02;;;;;;;22.50;17.63;;;23.30;70.80;;;;;;5037302;28;20025;-85
2021/09/17 11:31:33;;;;;;;21.67;16.42;;;23.20;70.70;;;;;;5037634;28;20033;-83
2021/09/17 11:34:00;;;;;;;24.55;16.45;;;23.20;70.10;;;;;;5037646;28;20029;-80
2021/09/17 11:36:40;;;;;;;25.77;15.43;;;23.20;69.20;;;;;;5054218;28;20017;-80
2021/09/17 11:39:24;;;;;;;22.00;14.85;;;23.20;67.80;;;;;;5037825;28;20746;-80
2021/09/17 11:41:58;;;;;;;23.70;17.35;;;23.20;67.10;;;;;;5037282;28;20044;-79
2021/09/17 11:44:34;;;;;;;22.35;14.85;;;23.20;66.80;;;;;;5054810;28;20017;-78
2021/09/17 11:47:01;;;;;;;23.58;15.20;;;23.20;66.10;;;;;;5036533;28;20056;-78
2021/09/17 11:49:34;;;;;;;28.35;16.00;;;23.10;66.80;;;;;;5036452;28;20034;-79
2021/09/17 11:52:05;;;;;;;20.90;15.18;;;23.10;66.50;;;;;;5036784;28;20028;-78
2021/09/17 11:54:32;;;;;;;20.90;15.15;;;23.00;67.10;;;;;;5052828;28;20036;-79
2021/09/17 11:57:09;;;;;;;20.13;14.57;;;22.90;67.00;;;;;;5034727;28;20037;-79
2021/09/17 11:59:43;;;;;;;20.45;14.75;;;22.80;66.90;;;;;;5030451;28;20065;-79
2021/09/17 12:02:23;;;;;;;21.45;13.85;;;22.70;67.40;;;;;;5033106;28;20538;-78
2021/09/17 12:05:15;;;;;;;20.90;15.38;;;22.60;68.90;;;;;;5042593;28;20064;-79
2021/09/17 12:07:42;;;;;;;20.38;15.55;;;22.60;69.20;;;;;;5045594;28;20037;-78
2021/09/17 12:10:14;;;;;;;21.73;15.85;;;22.60;69.40;;;;;;5037817;28;20588;-81
2021/09/17 12:12:46;;;;;;;23.08;16.38;;;22.60;69.20;;;;;;5054615;28;20053;-80
2021/09/17 12:15:13;;;;;;;19.67;13.98;;;22.70;68.80;;;;;;5054723;28;20469;-79
2021/09/17 12:17:57;;;;;;;16.05;12.32;;;22.80;67.90;;;;;;5017313;28;20037;-79
2021/09/17 12:20:43;;;;;;;15.82;11.45;;;22.90;67.50;;;;;;5036862;28;20091;-80
2021/09/17 12:23:12;;;;;;;13.52;10.20;;;23.00;66.60;;;;;;5035053;28;20025;-78
2021/09/17 12:25:38;;;;;;;12.38;8.70;;;23.00;66.40;;;;;;5034943;28;20096;-81
2021/09/17 12:28:07;;;;;;;12.57;8.38;;;23.10;66.30;;;;;;5017133;28;20033;-81
2021/09/17 12:30:35;;;;;;;11.05;9.07;;;23.10;65.10;;;;;;5033226;28;20064;-81